createdAt,value
2024-01-20T00:00:24.286Z,21.48
2024-01-20T00:01:24.251Z,21.48
2024-01-20T00:02:24.339Z,21.46
2024-01-20T00:03:24.299Z,21.47
2024-01-20T00:04:24.378Z,21.46
2024-01-20T00:05:24.553Z,21.47
2024-01-20T00:06:24.338Z,21.46
2024-01-20T00:07:24.325Z,21.47
2024-01-20T00:08:24.372Z,21.47
2024-01-20T00:09:28.889Z,21.48
2024-01-20T00:10:25.354Z,21.44
2024-01-20T00:11:24.403Z,21.47
2024-01-20T00:12:24.370Z,21.47
2024-01-20T00:13:24.382Z,21.46
2024-01-20T00:14:24.382Z,21.46
2024-01-20T00:15:24.392Z,21.44
2024-01-20T00:16:24.377Z,21.46
2024-01-20T00:17:27.117Z,21.43
2024-01-20T00:18:24.500Z,21.43
2024-01-20T00:19:24.396Z,21.43
2024-01-20T00:20:24.386Z,21.44
2024-01-20T00:21:24.399Z,21.41
2024-01-20T00:22:24.377Z,21.41
2024-01-20T00:23:24.389Z,21.41
2024-01-20T00:24:24.365Z,21.43
2024-01-20T00:25:24.397Z,21.40
2024-01-20T00:26:24.413Z,21.38
2024-01-20T00:27:24.367Z,21.37
2024-01-20T00:28:24.379Z,21.40
2024-01-20T00:29:24.393Z,21.41
2024-01-20T00:30:24.389Z,21.40
2024-01-20T00:31:24.381Z,21.38
2024-01-20T00:32:24.454Z,21.38
2024-01-20T00:33:24.498Z,21.38
2024-01-20T00:34:24.386Z,21.37
2024-01-20T00:35:24.408Z,21.38
2024-01-20T00:36:24.385Z,21.40
2024-01-20T00:37:24.389Z,21.38
2024-01-20T00:38:24.422Z,21.38
2024-01-20T00:39:24.396Z,21.37
2024-01-20T00:40:24.403Z,21.38
2024-01-20T00:41:24.448Z,21.38
2024-01-20T00:42:24.442Z,21.40
2024-01-20T00:43:24.401Z,21.38
2024-01-20T00:44:24.430Z,21.38
2024-01-20T00:45:24.423Z,21.40
2024-01-20T00:46:24.408Z,21.37
2024-01-20T00:47:24.442Z,21.40
2024-01-20T00:48:24.467Z,21.40
2024-01-20T00:49:24.414Z,21.40
2024-01-20T00:50:24.518Z,21.37
2024-01-20T00:51:24.429Z,21.38
2024-01-20T00:52:24.452Z,21.41
2024-01-20T00:53:24.465Z,21.37
2024-01-20T00:54:24.437Z,21.41
2024-01-20T00:55:24.435Z,21.38
2024-01-20T00:56:24.498Z,21.37
2024-01-20T00:57:24.455Z,21.38
2024-01-20T00:58:24.475Z,21.37
2024-01-20T00:59:24.448Z,21.38
2024-01-20T01:00:24.463Z,21.40
2024-01-20T01:01:24.451Z,21.38
2024-01-20T01:02:24.523Z,21.38
2024-01-20T01:03:24.515Z,21.37
2024-01-20T01:04:24.457Z,21.36
2024-01-20T01:05:24.468Z,21.37
2024-01-20T01:06:24.498Z,21.38
2024-01-20T01:07:24.444Z,21.37
2024-01-20T01:08:24.552Z,21.37
2024-01-20T01:09:24.450Z,21.37
2024-01-20T01:10:24.450Z,21.36
2024-01-20T01:11:24.479Z,21.36
2024-01-20T01:12:24.468Z,21.38
2024-01-20T01:13:24.447Z,21.37
2024-01-20T01:14:24.502Z,21.33
2024-01-20T01:15:24.450Z,21.36
2024-01-20T01:16:24.485Z,21.31
2024-01-20T01:17:24.536Z,21.33
2024-01-20T01:18:24.479Z,21.36
2024-01-20T01:19:24.481Z,21.33
2024-01-20T01:20:24.508Z,21.34
2024-01-20T01:21:24.480Z,21.36
2024-01-20T01:22:24.480Z,21.34
2024-01-20T01:23:24.640Z,21.34
2024-01-20T01:24:24.491Z,21.34
2024-01-20T01:25:24.491Z,21.31
2024-01-20T01:26:24.564Z,21.33
2024-01-20T01:27:24.596Z,21.34
2024-01-20T01:28:24.494Z,21.31
2024-01-20T01:29:24.538Z,21.31
2024-01-20T01:30:24.496Z,21.33
2024-01-20T01:31:24.505Z,21.31
2024-01-20T01:32:24.681Z,21.31
2024-01-20T01:33:24.592Z,21.33
2024-01-20T01:34:24.528Z,21.29
2024-01-20T01:35:24.568Z,21.30
2024-01-20T01:36:24.509Z,21.31
2024-01-20T01:37:24.499Z,21.30
2024-01-20T01:38:24.547Z,21.27
2024-01-20T01:39:24.512Z,21.30
2024-01-20T01:40:24.530Z,21.30
2024-01-20T01:41:24.501Z,21.29
2024-01-20T01:42:24.525Z,21.27
2024-01-20T01:43:24.505Z,21.27
2024-01-20T01:44:24.506Z,21.27
2024-01-20T01:45:24.523Z,21.29
2024-01-20T01:46:24.517Z,21.27
2024-01-20T01:47:24.560Z,21.26
2024-01-20T01:48:24.544Z,21.30
2024-01-20T01:49:24.540Z,21.30
2024-01-20T01:50:24.553Z,21.27
2024-01-20T01:51:24.515Z,21.29
2024-01-20T01:52:24.510Z,21.29
2024-01-20T01:53:24.523Z,21.30
2024-01-20T01:54:24.572Z,21.29
2024-01-20T01:55:24.512Z,21.26
2024-01-20T01:56:24.536Z,21.27
2024-01-20T01:57:24.575Z,21.29
2024-01-20T01:58:24.515Z,21.27
2024-01-20T01:59:24.553Z,21.26
2024-01-20T02:00:24.554Z,21.26
2024-01-20T02:01:24.526Z,21.27
2024-01-20T02:02:24.529Z,21.29
2024-01-20T02:03:24.914Z,21.29
2024-01-20T02:04:24.596Z,21.30
2024-01-20T02:05:24.526Z,21.29
2024-01-20T02:06:24.582Z,21.29
2024-01-20T02:07:24.560Z,21.27
2024-01-20T02:08:24.594Z,21.31
2024-01-20T02:09:24.608Z,21.29
2024-01-20T02:10:24.532Z,21.29
2024-01-20T02:11:24.531Z,21.27
2024-01-20T02:12:24.605Z,21.29
2024-01-20T02:13:24.557Z,21.29
2024-01-20T02:14:24.565Z,21.29
2024-01-20T02:15:24.648Z,21.30
2024-01-20T02:16:24.575Z,21.26
2024-01-20T02:17:24.602Z,21.29
2024-01-20T02:18:24.773Z,21.26
2024-01-20T02:19:24.643Z,21.29
2024-01-20T02:20:24.637Z,21.25
2024-01-20T02:21:24.711Z,21.25
2024-01-20T02:22:24.642Z,21.27
2024-01-20T02:23:24.641Z,21.23
2024-01-20T02:24:24.682Z,21.23
2024-01-20T02:25:24.681Z,21.23
2024-01-20T02:26:24.688Z,21.22
2024-01-20T02:27:24.771Z,21.25
2024-01-20T02:28:24.711Z,21.23
2024-01-20T02:29:24.721Z,21.22
2024-01-20T02:30:24.773Z,21.23
2024-01-20T02:31:24.751Z,21.23
2024-01-20T02:32:24.791Z,21.22
2024-01-20T02:33:24.835Z,21.23
2024-01-20T02:34:24.877Z,21.22
2024-01-20T02:35:24.801Z,21.22
2024-01-20T02:36:24.905Z,21.22
2024-01-20T02:37:24.839Z,21.23
2024-01-20T02:38:24.866Z,21.22
2024-01-20T02:39:24.956Z,21.25
2024-01-20T02:40:24.889Z,21.22
2024-01-20T02:41:24.901Z,21.23
2024-01-20T02:42:25.010Z,21.23
2024-01-20T02:43:24.921Z,21.22
2024-01-20T02:44:24.945Z,21.23
2024-01-20T02:45:24.978Z,21.20
2024-01-20T02:46:24.979Z,21.23
2024-01-20T02:47:24.994Z,21.20
2024-01-20T02:48:25.078Z,21.23
2024-01-20T02:49:25.067Z,21.19
2024-01-20T02:50:25.054Z,21.20
2024-01-20T02:51:25.127Z,21.20
2024-01-20T02:52:25.108Z,21.20
2024-01-20T02:53:25.140Z,21.22
2024-01-20T02:54:25.217Z,21.22
2024-01-20T02:55:25.209Z,21.23
2024-01-20T02:56:25.242Z,21.19
2024-01-20T02:57:25.341Z,21.19
2024-01-20T02:58:25.300Z,21.22
2024-01-20T02:59:25.358Z,21.20
2024-01-20T03:00:25.439Z,21.22
2024-01-20T03:01:25.471Z,21.22
2024-01-20T03:02:25.454Z,21.22
2024-01-20T03:03:25.562Z,21.20
2024-01-20T03:04:25.567Z,21.20
2024-01-20T03:05:25.655Z,21.20
2024-01-20T03:06:25.666Z,21.17
2024-01-20T03:07:25.624Z,21.19
2024-01-20T03:08:25.656Z,21.19
2024-01-20T03:09:25.763Z,21.16
2024-01-20T03:10:25.748Z,21.16
2024-01-20T03:11:25.790Z,21.19
2024-01-20T03:12:25.862Z,21.17
2024-01-20T03:13:25.829Z,21.20
2024-01-20T03:14:25.898Z,21.17
2024-01-20T03:15:26.001Z,21.17
2024-01-20T03:16:25.982Z,21.17
2024-01-20T03:17:26.035Z,21.17
2024-01-20T03:18:26.156Z,21.16
2024-01-20T03:19:26.107Z,21.16
2024-01-20T03:20:26.120Z,21.16
2024-01-20T03:21:26.218Z,21.17
2024-01-20T03:22:26.240Z,21.17
2024-01-20T03:23:26.241Z,21.16
2024-01-20T03:24:26.323Z,21.14
2024-01-20T03:25:26.315Z,21.14
2024-01-20T03:26:26.377Z,21.14
2024-01-20T03:27:26.431Z,21.14
2024-01-20T03:28:26.450Z,21.11
2024-01-20T03:29:26.496Z,21.13
2024-01-20T03:30:26.545Z,21.13
2024-01-20T03:31:26.605Z,21.13
2024-01-20T03:32:26.668Z,21.16
2024-01-20T03:33:26.766Z,21.13
2024-01-20T03:34:26.801Z,21.13
2024-01-20T03:35:26.761Z,21.16
2024-01-20T03:36:26.826Z,21.14
2024-01-20T03:37:26.809Z,21.16
2024-01-20T03:38:26.858Z,21.11
2024-01-20T03:39:26.939Z,21.13
2024-01-20T03:41:26.997Z,21.13
2024-01-20T03:42:27.108Z,21.13
2024-01-20T03:43:27.063Z,21.13
2024-01-20T03:44:27.106Z,21.13
2024-01-20T03:45:27.269Z,21.11
2024-01-20T03:46:27.179Z,21.10
2024-01-20T03:47:27.231Z,21.13
2024-01-20T03:48:27.367Z,21.11
2024-01-20T03:49:27.392Z,21.10
2024-01-20T03:50:27.454Z,21.13
2024-01-20T03:51:27.646Z,21.13
2024-01-20T03:52:27.440Z,21.09
2024-01-20T03:53:27.466Z,21.10
2024-01-20T03:54:27.600Z,21.10
2024-01-20T03:55:27.560Z,21.13
2024-01-20T03:56:27.590Z,21.11
2024-01-20T03:57:27.646Z,21.10
2024-01-20T03:58:27.671Z,21.11
2024-01-20T03:59:27.721Z,21.13
2024-01-20T04:00:27.792Z,21.10
2024-01-20T04:01:27.801Z,21.10
2024-01-20T04:02:27.854Z,21.10
2024-01-20T04:03:27.964Z,21.10
2024-01-20T04:04:28.002Z,21.11
2024-01-20T04:05:28.008Z,21.09
2024-01-20T04:06:28.090Z,21.07
2024-01-20T04:07:28.089Z,21.10
2024-01-20T04:08:28.096Z,21.07
2024-01-20T04:09:28.239Z,21.09
2024-01-20T04:10:28.199Z,21.11
2024-01-20T04:11:28.275Z,21.09
2024-01-20T04:12:28.330Z,21.07
2024-01-20T04:13:28.341Z,21.07
2024-01-20T04:14:28.377Z,21.09
2024-01-20T04:15:28.547Z,21.09
2024-01-20T04:16:28.477Z,21.09
2024-01-20T04:17:28.564Z,21.07
2024-01-20T04:18:28.741Z,21.06
2024-01-20T04:19:28.705Z,21.10
2024-01-20T04:20:28.684Z,21.06
2024-01-20T04:21:28.846Z,21.06
2024-01-20T04:22:28.787Z,21.06
2024-01-20T04:23:28.831Z,21.06
2024-01-20T04:24:28.990Z,21.06
2024-01-20T04:25:28.929Z,21.06
2024-01-20T04:26:28.983Z,21.07
2024-01-20T04:27:29.079Z,21.06
2024-01-20T04:28:29.054Z,21.06
2024-01-20T04:29:29.124Z,21.06
2024-01-20T04:30:29.182Z,21.06
2024-01-20T04:31:29.206Z,21.06
2024-01-20T04:32:29.277Z,21.07
2024-01-20T04:33:29.382Z,21.05
2024-01-20T04:34:29.767Z,21.02
2024-01-20T04:35:29.405Z,21.07
2024-01-20T04:36:29.616Z,21.03
2024-01-20T04:38:29.563Z,21.03
2024-01-20T04:39:29.813Z,21.05
2024-01-20T04:40:29.640Z,21.03
2024-01-20T04:41:29.702Z,21.03
2024-01-20T04:42:29.856Z,21.06
2024-01-20T04:43:29.792Z,21.03
2024-01-20T04:44:30.226Z,21.03
2024-01-20T04:45:37.751Z,21.00
2024-01-20T04:46:37.528Z,21.00
2024-01-20T04:47:37.556Z,21.02
2024-01-20T04:48:37.630Z,21.02
2024-01-20T04:49:37.649Z,21.02
2024-01-20T04:50:37.560Z,21.00
2024-01-20T04:51:37.613Z,21.03
2024-01-20T04:52:37.562Z,21.03
2024-01-20T04:53:37.567Z,21.03
2024-01-20T04:54:37.648Z,21.00
2024-01-20T04:55:37.560Z,21.02
2024-01-20T04:56:37.545Z,21.02
2024-01-20T04:57:37.577Z,21.00
2024-01-20T04:58:37.569Z,21.00
2024-01-20T04:59:37.557Z,21.00
2024-01-20T05:00:37.672Z,21.02
2024-01-20T05:01:40.490Z,21.00
2024-01-20T05:02:37.583Z,20.99
2024-01-20T05:03:37.614Z,21.00
2024-01-20T05:04:37.673Z,21.00
2024-01-20T05:05:37.623Z,20.99
2024-01-20T05:06:37.642Z,21.00
2024-01-20T05:07:37.582Z,21.00
2024-01-20T05:08:37.569Z,21.02
2024-01-20T05:09:37.633Z,20.97
2024-01-20T05:10:37.582Z,20.99
2024-01-20T05:11:37.599Z,21.00
2024-01-20T05:12:37.659Z,20.99
2024-01-20T05:13:37.596Z,20.99
2024-01-20T05:14:37.582Z,20.99
2024-01-20T05:15:37.615Z,20.99
2024-01-20T05:16:37.588Z,20.99
2024-01-20T05:17:37.624Z,21.00
2024-01-20T05:18:37.669Z,20.99
2024-01-20T05:19:37.673Z,20.96
2024-01-20T05:20:37.594Z,20.96
2024-01-20T05:21:37.656Z,20.99
2024-01-20T05:22:37.605Z,20.96
2024-01-20T05:23:37.593Z,20.97
2024-01-20T05:24:37.653Z,20.96
2024-01-20T05:25:37.602Z,20.97
2024-01-20T05:26:37.628Z,20.95
2024-01-20T05:27:37.627Z,20.95
2024-01-20T05:28:37.609Z,20.96
2024-01-20T05:29:37.609Z,20.96
2024-01-20T05:30:37.645Z,20.96
2024-01-20T05:31:37.617Z,20.96
2024-01-20T05:32:37.652Z,20.95
2024-01-20T05:33:37.690Z,20.95
2024-01-20T05:34:37.689Z,20.93
2024-01-20T05:35:37.617Z,20.96
2024-01-20T05:36:37.633Z,20.95
2024-01-20T05:37:37.618Z,20.97
2024-01-20T05:38:37.615Z,20.97
2024-01-20T05:39:37.685Z,20.93
2024-01-20T05:40:37.602Z,20.95
2024-01-20T05:41:37.619Z,20.97
2024-01-20T05:42:37.677Z,20.95
2024-01-20T05:43:37.715Z,20.95
2024-01-20T05:44:37.793Z,20.95
2024-01-20T05:45:37.945Z,20.95
2024-01-20T05:46:37.894Z,20.93
2024-01-20T05:47:37.975Z,20.95
2024-01-20T05:48:38.155Z,20.95
2024-01-20T05:49:38.209Z,20.95
2024-01-20T05:50:38.169Z,20.93
2024-01-20T05:51:38.238Z,20.93
2024-01-20T05:52:38.290Z,20.95
2024-01-20T05:53:38.376Z,20.93
2024-01-20T05:54:38.481Z,20.92
2024-01-20T05:55:38.500Z,20.92
2024-01-20T05:56:38.612Z,20.95
2024-01-20T05:57:38.639Z,20.93
2024-01-20T05:58:38.712Z,20.89
2024-01-20T05:59:38.788Z,20.90
2024-01-20T06:00:39.069Z,20.89
2024-01-20T06:01:38.933Z,20.89
2024-01-20T06:02:39.023Z,20.92
2024-01-20T06:03:39.156Z,20.90
2024-01-20T06:04:39.136Z,20.89
2024-01-20T06:05:39.215Z,20.89
2024-01-20T06:06:39.353Z,20.90
2024-01-20T06:07:39.356Z,20.89
2024-01-20T06:08:39.437Z,20.86
2024-01-20T06:09:39.555Z,20.86
2024-01-20T06:10:39.586Z,20.87
2024-01-20T06:11:39.652Z,20.87
2024-01-20T06:12:39.711Z,20.87
2024-01-20T06:13:39.788Z,20.89
2024-01-20T06:14:39.867Z,20.89
2024-01-20T06:15:39.930Z,20.87
2024-01-20T06:16:40.016Z,20.86
2024-01-20T06:17:40.090Z,20.86
2024-01-20T06:18:40.146Z,20.85
2024-01-20T06:19:40.268Z,20.89
2024-01-20T06:20:40.271Z,20.85
2024-01-20T06:21:40.336Z,20.85
2024-01-20T06:22:40.523Z,20.86
2024-01-20T06:23:40.483Z,20.83
2024-01-20T06:24:40.566Z,20.86
2024-01-20T06:25:40.623Z,20.85
2024-01-20T06:26:40.694Z,20.85
2024-01-20T06:27:40.781Z,20.86
2024-01-20T06:28:40.820Z,20.86
2024-01-20T06:29:40.882Z,20.83
2024-01-20T06:30:40.969Z,20.85
2024-01-20T06:31:41.001Z,20.86
2024-01-20T06:32:41.103Z,20.86
2024-01-20T06:33:41.312Z,20.85
2024-01-20T06:34:41.326Z,20.83
2024-01-20T06:35:41.291Z,20.83
2024-01-20T06:36:41.339Z,20.83
2024-01-20T06:37:41.423Z,20.85
2024-01-20T06:38:41.514Z,20.85
2024-01-20T06:39:41.562Z,20.83
2024-01-20T06:40:41.638Z,20.80
2024-01-20T06:41:41.683Z,20.83
2024-01-20T06:42:41.793Z,20.83
2024-01-20T06:43:41.872Z,20.82
2024-01-20T06:44:41.910Z,20.83
2024-01-20T06:45:42.093Z,20.83
2024-01-20T06:46:42.115Z,20.80
2024-01-20T06:47:42.245Z,20.82
2024-01-20T06:48:42.329Z,20.82
2024-01-20T06:49:42.357Z,20.80
2024-01-20T06:50:42.354Z,20.83
2024-01-20T06:51:42.420Z,20.82
2024-01-20T06:52:43.628Z,20.79
2024-01-20T06:53:42.604Z,20.82
2024-01-20T06:54:42.634Z,20.83
2024-01-20T06:55:42.712Z,20.80
2024-01-20T06:56:42.768Z,20.82
2024-01-20T06:57:42.883Z,20.83
2024-01-20T06:58:42.931Z,20.82
2024-01-20T06:59:43.010Z,20.82
2024-01-20T07:00:43.264Z,20.83
2024-01-20T07:01:43.132Z,20.83
2024-01-20T07:02:43.208Z,20.82
2024-01-20T07:03:43.333Z,20.82
2024-01-20T07:04:43.334Z,20.80
2024-01-20T07:05:43.417Z,20.80
2024-01-20T07:06:43.523Z,20.78
2024-01-20T07:07:43.526Z,20.78
2024-01-20T07:08:43.625Z,20.78
2024-01-20T07:09:43.651Z,20.78
2024-01-20T07:10:43.710Z,20.79
2024-01-20T07:11:43.816Z,20.82
2024-01-20T07:12:43.954Z,20.79
2024-01-20T07:13:43.933Z,20.79
2024-01-20T07:14:44.002Z,20.80
2024-01-20T07:15:44.089Z,20.79
2024-01-20T07:16:44.186Z,20.78
2024-01-20T07:17:44.255Z,20.79
2024-01-20T07:18:44.358Z,20.79
2024-01-20T07:19:44.426Z,20.80
2024-01-20T07:20:44.436Z,20.80
2024-01-20T07:21:44.512Z,20.79
2024-01-20T07:22:44.564Z,20.78
2024-01-20T07:23:44.656Z,20.80
2024-01-20T07:24:44.719Z,20.78
2024-01-20T07:25:44.808Z,20.78
2024-01-20T07:26:44.852Z,20.78
2024-01-20T07:27:44.913Z,20.78
2024-01-20T07:28:44.983Z,20.76
2024-01-20T07:29:45.075Z,20.78
2024-01-20T07:30:45.151Z,20.79
2024-01-20T07:31:45.202Z,20.76
2024-01-20T07:32:45.300Z,20.76
2024-01-20T07:33:45.389Z,20.76
2024-01-20T07:34:45.419Z,20.79
2024-01-20T07:35:45.419Z,20.78
2024-01-20T07:36:45.525Z,20.78
2024-01-20T07:37:45.531Z,20.78
2024-01-20T07:38:45.613Z,20.76
2024-01-20T07:39:45.637Z,20.78
2024-01-20T07:40:45.730Z,20.79
2024-01-20T07:41:45.760Z,20.78
2024-01-20T07:42:45.826Z,20.76
2024-01-20T07:43:45.842Z,20.76
2024-01-20T07:44:45.885Z,20.78
2024-01-20T07:45:45.978Z,20.79
2024-01-20T07:46:45.991Z,20.78
2024-01-20T07:47:46.039Z,20.78
2024-01-20T07:48:46.121Z,20.76
2024-01-20T07:49:46.138Z,20.79
2024-01-20T07:50:46.145Z,20.80
2024-01-20T07:51:46.267Z,20.83
2024-01-20T07:52:46.256Z,20.86
2024-01-20T07:53:46.343Z,20.90
2024-01-20T07:54:46.481Z,20.95
2024-01-20T07:55:46.500Z,21.00
2024-01-20T07:56:46.546Z,21.03
2024-01-20T07:57:46.638Z,21.06
2024-01-20T07:58:46.691Z,21.07
2024-01-20T07:59:46.730Z,21.10
2024-01-20T08:00:46.907Z,21.10
2024-01-20T08:01:46.841Z,21.14
2024-01-20T08:02:46.891Z,21.16
2024-01-20T08:03:47.035Z,21.17
2024-01-20T08:04:47.028Z,21.23
2024-01-20T08:05:47.171Z,21.25
2024-01-20T08:06:47.156Z,21.26
2024-01-20T08:07:47.128Z,21.29
2024-01-20T08:08:47.164Z,21.31
2024-01-20T08:09:47.286Z,21.36
2024-01-20T08:10:47.233Z,21.36
2024-01-20T08:11:47.312Z,21.36
2024-01-20T08:12:47.303Z,21.41
2024-01-20T08:13:47.326Z,21.46
2024-01-20T08:14:47.338Z,21.46
2024-01-20T08:15:47.483Z,21.48
2024-01-20T08:16:47.388Z,21.50
2024-01-20T08:17:47.453Z,21.54
2024-01-20T08:18:47.651Z,21.57
2024-01-20T08:19:47.477Z,21.58
2024-01-20T08:20:47.476Z,21.62
2024-01-20T08:21:47.487Z,21.61
2024-01-20T08:22:47.522Z,21.64
2024-01-20T08:23:47.520Z,21.65
2024-01-20T08:24:47.536Z,21.68
2024-01-20T08:25:47.558Z,21.68
2024-01-20T08:26:47.533Z,21.74
2024-01-20T08:27:47.555Z,21.78
2024-01-20T08:28:47.579Z,21.80
2024-01-20T08:29:47.580Z,21.80
2024-01-20T08:30:47.712Z,21.81
2024-01-20T08:31:47.580Z,21.84
2024-01-20T08:32:47.693Z,21.87
2024-01-20T08:33:47.777Z,21.89
2024-01-20T08:34:47.710Z,21.92
2024-01-20T08:35:47.742Z,21.97
2024-01-20T08:36:47.786Z,21.97
2024-01-20T08:37:47.843Z,21.99
2024-01-20T08:38:47.895Z,22.01
2024-01-20T08:39:47.972Z,22.07
2024-01-20T08:40:48.074Z,22.07
2024-01-20T08:41:48.115Z,22.09
2024-01-20T08:42:48.189Z,22.11
2024-01-20T08:43:48.254Z,22.13
2024-01-20T08:44:48.327Z,22.16
2024-01-20T08:45:48.416Z,22.18
2024-01-20T08:46:48.446Z,22.19
2024-01-20T08:47:48.523Z,22.23
2024-01-20T08:48:48.579Z,22.26
2024-01-20T08:49:48.624Z,22.28
2024-01-20T08:50:48.673Z,22.32
2024-01-20T08:51:48.735Z,22.36
2024-01-20T08:52:48.796Z,22.42
2024-01-20T08:53:48.825Z,22.46
2024-01-20T08:54:48.919Z,22.50
2024-01-20T08:55:48.894Z,22.59
2024-01-20T08:56:48.909Z,22.63
2024-01-20T08:57:48.922Z,22.70
2024-01-20T08:58:48.957Z,22.73
2024-01-20T08:59:48.965Z,22.79
2024-01-20T09:00:49.070Z,22.85
2024-01-20T09:01:48.991Z,22.91
2024-01-20T09:02:49.051Z,22.93
2024-01-20T09:03:49.216Z,23.01
2024-01-20T09:04:49.027Z,23.04
2024-01-20T09:05:49.034Z,23.06
2024-01-20T09:06:49.115Z,23.13
2024-01-20T09:07:49.029Z,23.15
2024-01-20T09:08:49.071Z,23.21
2024-01-20T09:09:49.115Z,23.25
2024-01-20T09:10:49.170Z,23.25
2024-01-20T09:11:49.243Z,23.28
2024-01-20T09:12:49.309Z,23.31
2024-01-20T09:13:49.385Z,23.32
2024-01-20T09:14:49.480Z,23.35
2024-01-20T09:15:49.592Z,23.38
2024-01-20T09:16:49.596Z,23.37
2024-01-20T09:17:49.675Z,23.38
2024-01-20T09:18:49.860Z,23.37
2024-01-20T09:19:49.949Z,23.40
2024-01-20T09:20:49.832Z,23.38
2024-01-20T09:21:49.936Z,23.38
2024-01-20T09:22:49.977Z,23.37
2024-01-20T09:23:50.075Z,23.40
2024-01-20T09:24:50.126Z,23.40
2024-01-20T09:25:50.194Z,23.38
2024-01-20T09:26:50.222Z,23.40
2024-01-20T09:27:50.288Z,23.40
2024-01-20T09:28:50.365Z,23.38
2024-01-20T09:29:50.419Z,23.41
2024-01-20T09:30:50.492Z,23.42
2024-01-20T09:31:50.551Z,23.45
2024-01-20T09:32:50.739Z,23.42
2024-01-20T09:33:50.769Z,23.45
2024-01-20T09:34:50.725Z,23.42
2024-01-20T09:35:50.761Z,23.45
2024-01-20T09:36:51.007Z,23.45
2024-01-20T09:37:50.862Z,23.44
2024-01-20T09:38:50.905Z,23.48
2024-01-20T09:39:50.975Z,23.47
2024-01-20T09:40:51.002Z,23.49
2024-01-20T09:41:51.051Z,23.49
2024-01-20T09:42:51.109Z,23.49
2024-01-20T09:43:51.153Z,23.51
2024-01-20T09:44:51.206Z,23.51
2024-01-20T09:45:51.241Z,23.52
2024-01-20T09:46:51.262Z,23.55
2024-01-20T09:47:51.369Z,23.54
2024-01-20T09:48:51.498Z,23.57
2024-01-20T09:49:51.457Z,23.58
2024-01-20T09:50:51.429Z,23.59
2024-01-20T09:51:51.460Z,23.61
2024-01-20T09:52:51.498Z,23.61
2024-01-20T09:53:51.560Z,23.62
2024-01-20T09:54:51.553Z,23.64
2024-01-20T09:55:51.860Z,23.65
2024-01-20T09:56:51.637Z,23.66
2024-01-20T09:57:51.680Z,23.65
2024-01-20T09:58:51.701Z,23.66
2024-01-20T09:59:51.742Z,23.72
2024-01-20T10:00:51.813Z,23.80
2024-01-20T10:01:51.785Z,23.90
2024-01-20T10:02:51.820Z,24.00
2024-01-20T10:03:51.896Z,24.09
2024-01-20T10:04:51.891Z,24.15
2024-01-20T10:05:51.909Z,24.19
2024-01-20T10:06:52.011Z,24.23
2024-01-20T10:07:52.054Z,24.26
2024-01-20T10:08:52.094Z,24.24
2024-01-20T10:09:52.209Z,24.26
2024-01-20T10:10:52.204Z,24.23
2024-01-20T10:11:53.229Z,24.26
2024-01-20T10:12:52.411Z,24.26
2024-01-20T10:13:52.420Z,24.24
2024-01-20T10:14:52.481Z,24.21
2024-01-20T10:15:52.597Z,24.21
2024-01-20T10:16:52.621Z,24.20
2024-01-20T10:17:52.698Z,24.19
2024-01-20T10:18:52.772Z,24.16
2024-01-20T10:19:52.903Z,24.17
2024-01-20T10:20:52.886Z,24.16
2024-01-20T10:21:52.950Z,24.16
2024-01-20T10:22:53.019Z,24.16
2024-01-20T10:23:53.113Z,24.16
2024-01-20T10:24:53.146Z,24.15
2024-01-20T10:25:53.223Z,24.16
2024-01-20T10:26:53.307Z,24.19
2024-01-20T10:27:53.381Z,24.19
2024-01-20T10:28:53.452Z,24.20
2024-01-20T10:29:53.555Z,24.21
2024-01-20T10:30:53.707Z,24.27
2024-01-20T10:31:53.671Z,24.29
2024-01-20T10:33:03.699Z,24.34
2024-01-20T10:33:54.757Z,24.39
2024-01-20T10:34:53.852Z,24.43
2024-01-20T10:35:53.725Z,24.47
2024-01-20T10:36:53.749Z,24.46
2024-01-20T10:37:53.720Z,24.54
2024-01-20T10:38:53.755Z,24.63
2024-01-20T10:39:53.757Z,24.72
2024-01-20T10:40:53.735Z,24.91
2024-01-20T10:41:53.760Z,25.09
2024-01-20T10:42:54.346Z,25.23
2024-01-20T10:43:53.742Z,25.39
2024-01-20T10:44:53.760Z,25.49
2024-01-20T10:45:53.751Z,25.63
2024-01-20T10:46:53.746Z,25.66
2024-01-20T10:47:53.915Z,25.79
2024-01-20T10:48:54.070Z,25.84
2024-01-20T10:49:54.002Z,25.90
2024-01-20T10:50:54.014Z,25.94
2024-01-20T10:51:54.234Z,26.00
2024-01-20T10:52:54.133Z,26.01
2024-01-20T10:53:54.282Z,26.04
2024-01-20T10:54:54.250Z,26.07
2024-01-20T10:55:54.271Z,26.10
2024-01-20T10:56:54.333Z,26.13
2024-01-20T10:57:54.351Z,26.16
2024-01-20T10:58:54.425Z,26.20
2024-01-20T10:59:54.395Z,26.23
2024-01-20T11:00:54.566Z,26.24
2024-01-20T11:01:54.466Z,26.24
2024-01-20T11:02:54.492Z,26.26
2024-01-20T11:03:54.600Z,26.27
2024-01-20T11:04:54.546Z,26.31
2024-01-20T11:05:54.771Z,26.27
2024-01-20T11:06:54.646Z,26.26
2024-01-20T11:07:54.624Z,26.26
2024-01-20T11:08:54.648Z,26.24
2024-01-20T11:09:54.695Z,26.17
2024-01-20T11:10:54.726Z,26.10
2024-01-20T11:11:54.772Z,26.03
2024-01-20T11:12:54.798Z,25.91
2024-01-20T11:13:54.832Z,25.83
2024-01-20T11:14:54.897Z,25.72
2024-01-20T11:15:54.947Z,25.62
2024-01-20T11:16:55.028Z,25.53
2024-01-20T11:17:55.080Z,25.45
2024-01-20T11:18:55.210Z,25.33
2024-01-20T11:19:55.213Z,25.26
2024-01-20T11:20:55.200Z,25.15
2024-01-20T11:21:55.229Z,25.11
2024-01-20T11:22:55.250Z,25.04
2024-01-20T11:23:55.268Z,24.97
2024-01-20T11:24:55.365Z,24.92
2024-01-20T11:25:55.280Z,24.85
2024-01-20T11:26:55.310Z,24.78
2024-01-20T11:27:55.322Z,24.77
2024-01-20T11:28:55.331Z,24.71
2024-01-20T11:29:55.353Z,24.67
2024-01-20T11:30:55.476Z,24.63
2024-01-20T11:31:55.508Z,24.61
2024-01-20T11:32:55.515Z,24.59
2024-01-20T11:33:55.677Z,24.54
2024-01-20T11:34:55.483Z,24.50
2024-01-20T11:35:55.532Z,24.50
2024-01-20T11:36:55.561Z,24.46
2024-01-20T11:37:55.602Z,24.43
2024-01-20T11:38:55.646Z,24.41
2024-01-20T11:39:55.663Z,24.37
2024-01-20T11:40:55.708Z,24.37
2024-01-20T11:41:55.744Z,24.36
2024-01-20T11:42:55.808Z,24.33
2024-01-20T11:43:56.368Z,24.33
2024-01-20T11:44:55.909Z,24.30
2024-01-20T11:45:55.961Z,24.27
2024-01-20T11:46:56.043Z,24.27
2024-01-20T11:47:56.139Z,24.26
2024-01-20T11:48:56.316Z,24.21
2024-01-20T11:49:56.298Z,24.21
2024-01-20T11:50:56.221Z,24.20
2024-01-20T11:51:56.285Z,24.19
2024-01-20T11:52:56.330Z,24.19
2024-01-20T11:53:56.384Z,24.17
2024-01-20T11:54:56.437Z,24.16
2024-01-20T11:55:56.530Z,24.15
2024-01-20T11:56:56.577Z,24.13
2024-01-20T11:57:56.637Z,24.13
2024-01-20T11:58:56.762Z,24.13
2024-01-20T11:59:56.765Z,24.13
2024-01-20T12:00:57.095Z,24.12
2024-01-20T12:01:56.891Z,24.13
2024-01-20T12:02:56.980Z,24.12
2024-01-20T12:03:57.074Z,24.12
2024-01-20T12:05:02.131Z,24.13
2024-01-20T12:05:58.315Z,24.13
2024-01-20T12:06:57.134Z,24.15
2024-01-20T12:07:57.051Z,24.12
2024-01-20T12:08:57.228Z,24.10
2024-01-20T12:09:57.051Z,24.12
2024-01-20T12:10:57.060Z,24.13
2024-01-20T12:11:57.102Z,24.12
2024-01-20T12:12:57.049Z,24.15
2024-01-20T12:13:57.076Z,24.12
2024-01-20T12:14:57.194Z,24.10
2024-01-20T12:15:57.077Z,24.13
2024-01-20T12:16:57.125Z,24.10
2024-01-20T12:17:57.267Z,24.10
2024-01-20T12:18:57.445Z,24.09
2024-01-20T12:19:57.389Z,24.10
2024-01-20T12:20:57.402Z,24.10
2024-01-20T12:21:57.422Z,24.09
2024-01-20T12:22:57.447Z,24.09
2024-01-20T12:23:57.599Z,24.09
2024-01-20T12:24:57.565Z,24.09
2024-01-20T12:25:57.624Z,24.09
2024-01-20T12:26:57.732Z,24.08
2024-01-20T12:27:57.773Z,24.08
2024-01-20T12:28:57.826Z,24.06
2024-01-20T12:29:57.875Z,24.05
2024-01-20T12:30:57.912Z,24.08
2024-01-20T12:31:57.982Z,24.09
2024-01-20T12:32:58.274Z,24.06
2024-01-20T12:33:58.183Z,24.05
2024-01-20T12:34:58.171Z,24.08
2024-01-20T12:35:58.317Z,24.02
2024-01-20T12:36:58.320Z,24.05
2024-01-20T12:37:58.371Z,24.05
2024-01-20T12:38:58.500Z,24.00
2024-01-20T12:39:58.513Z,24.00
2024-01-20T12:40:58.579Z,24.02
2024-01-20T12:41:58.665Z,23.99
2024-01-20T12:42:58.704Z,24.02
2024-01-20T12:43:58.747Z,24.02
2024-01-20T12:44:58.862Z,24.00
2024-01-20T12:45:58.891Z,23.99
2024-01-20T12:46:58.966Z,23.98
2024-01-20T12:47:59.165Z,23.98
2024-01-20T12:48:59.173Z,23.98
2024-01-20T12:49:59.237Z,23.98
2024-01-20T12:50:59.254Z,23.95
2024-01-20T12:51:59.315Z,23.93
2024-01-20T12:52:59.399Z,23.93
2024-01-20T12:53:59.501Z,23.92
2024-01-20T12:54:59.568Z,23.90